createdAt,value
2019-01-24T00:00:39.080Z,46.43
2019-01-24T00:03:10.228Z,46.20
2019-01-24T00:05:40.024Z,46.63
2019-01-24T00:08:09.520Z,45.97
2019-01-24T00:10:39.006Z,45.43
2019-01-24T00:13:08.479Z,47.63
2019-01-24T00:15:37.968Z,44.57
2019-01-24T00:18:07.456Z,46.33
2019-01-24T00:20:36.941Z,42.83
2019-01-24T00:23:06.426Z,43.87
2019-01-24T00:25:35.917Z,41.67
2019-01-24T00:28:05.400Z,41.20
2019-01-24T00:30:34.908Z,44.33
2019-01-24T00:33:04.758Z,43.70
2019-01-24T00:35:34.259Z,43.97
2019-01-24T00:38:04.070Z,42.67
2019-01-24T00:40:33.541Z,43.10
2019-01-24T00:43:03.285Z,42.90
2019-01-24T00:45:32.772Z,42.93
2019-01-24T00:48:02.245Z,44.73
2019-01-24T00:50:31.743Z,44.80
2019-01-24T00:53:01.483Z,44.00
2019-01-24T00:55:30.957Z,42.83
2019-01-24T00:58:00.445Z,43.33
2019-01-24T01:00:30.116Z,46.13
2019-01-24T01:02:59.600Z,44.20
2019-01-24T01:05:29.229Z,45.70
2019-01-24T01:07:58.703Z,44.90
2019-01-24T01:10:28.691Z,47.67
2019-01-24T01:12:58.167Z,46.50
2019-01-24T01:15:27.638Z,48.03
2019-01-24T01:17:57.120Z,48.17
2019-01-24T01:20:26.603Z,46.23
2019-01-24T01:22:56.086Z,47.97
2019-01-24T01:25:25.621Z,48.73
2019-01-24T01:27:55.093Z,49.53
2019-01-24T01:30:24.836Z,48.43
2019-01-24T01:32:54.383Z,50.23
2019-01-24T01:35:23.918Z,48.23
2019-01-24T01:37:53.468Z,46.40
2019-01-24T01:40:22.958Z,50.30
2019-01-24T01:42:52.774Z,48.97
2019-01-24T01:45:22.517Z,47.73
2019-01-24T01:47:53.177Z,49.07
2019-01-24T01:50:24.298Z,47.13
2019-01-24T01:52:53.762Z,47.47
2019-01-24T01:55:23.220Z,48.10
2019-01-24T01:57:52.699Z,48.60
2019-01-24T02:00:24.015Z,49.63
2019-01-24T02:02:53.475Z,48.00
2019-01-24T02:05:23.022Z,48.67
2019-01-24T02:07:54.155Z,48.30
2019-01-24T02:10:24.987Z,49.13
2019-01-24T02:12:56.106Z,49.67
2019-01-24T02:15:25.592Z,49.73
2019-01-24T02:17:55.407Z,48.27
2019-01-24T02:20:24.961Z,52.93
2019-01-24T02:22:54.787Z,49.97
2019-01-24T02:25:24.731Z,50.77
2019-01-24T02:27:54.197Z,51.53
2019-01-24T02:30:26.013Z,52.63
2019-01-24T02:32:55.471Z,49.40
2019-01-24T02:35:25.018Z,53.00
2019-01-24T02:37:54.512Z,52.20
2019-01-24T02:40:23.987Z,49.70
2019-01-24T02:42:53.440Z,50.23
2019-01-24T02:45:24.266Z,52.73
2019-01-24T02:47:53.743Z,50.70
2019-01-24T02:50:23.855Z,50.93
2019-01-24T02:52:53.608Z,48.37
2019-01-24T02:55:23.072Z,49.97
2019-01-24T02:57:52.539Z,48.67
2019-01-24T03:00:23.566Z,51.00
2019-01-24T03:02:53.048Z,49.30
2019-01-24T03:05:23.699Z,52.83
2019-01-24T03:07:53.150Z,47.53
2019-01-24T03:10:22.621Z,51.73
2019-01-24T03:12:52.159Z,49.50
2019-01-24T03:15:22.946Z,50.60
2019-01-24T03:17:52.623Z,51.87
2019-01-24T03:20:22.152Z,50.93
2019-01-24T03:22:51.969Z,51.03
2019-01-24T03:25:21.440Z,50.93
2019-01-24T03:27:50.900Z,52.50
2019-01-24T03:30:21.935Z,52.47
2019-01-24T03:32:51.493Z,55.47
2019-01-24T03:35:23.685Z,50.17
2019-01-24T03:37:53.139Z,49.83
2019-01-24T03:40:22.626Z,52.30
2019-01-24T03:42:52.388Z,52.67
2019-01-24T03:45:21.933Z,50.90
2019-01-24T03:47:51.412Z,52.63
2019-01-24T03:50:21.736Z,50.30
2019-01-24T03:52:51.584Z,51.30
2019-01-24T03:55:21.755Z,50.23
2019-01-24T03:57:51.215Z,52.73
2019-01-24T04:00:22.448Z,51.37
2019-01-24T04:02:52.157Z,50.20
2019-01-24T04:05:21.827Z,50.83
2019-01-24T04:07:51.666Z,51.73
2019-01-24T04:10:22.096Z,49.57
2019-01-24T04:12:51.917Z,51.10
2019-01-24T04:15:25.328Z,46.50
2019-01-24T04:17:54.881Z,52.10
2019-01-24T04:20:24.455Z,49.10
2019-01-24T04:22:53.916Z,51.43
2019-01-24T04:25:23.745Z,53.03
2019-01-24T04:27:53.217Z,50.43
2019-01-24T04:30:23.775Z,52.03
2019-01-24T04:32:53.413Z,49.80
2019-01-24T04:35:22.883Z,54.40
2019-01-24T04:37:52.353Z,50.80
2019-01-24T04:40:22.078Z,51.60
2019-01-24T04:42:51.621Z,51.70
2019-01-24T04:45:21.114Z,53.97
2019-01-24T04:47:50.931Z,49.93
2019-01-24T04:50:20.742Z,49.37
2019-01-24T04:52:50.567Z,51.80
2019-01-24T04:55:20.207Z,51.33
2019-01-24T04:57:50.029Z,48.43
2019-01-24T05:00:22.066Z,51.33
2019-01-24T05:02:51.535Z,53.30
2019-01-24T05:05:27.536Z,50.43
2019-01-24T05:07:52.257Z,47.80
2019-01-24T05:10:21.761Z,50.73
2019-01-24T05:12:51.242Z,49.77
2019-01-24T05:15:20.703Z,52.23
2019-01-24T05:17:50.191Z,49.70
2019-01-24T05:20:19.751Z,48.67
2019-01-24T05:22:49.546Z,51.63
2019-01-24T05:25:19.311Z,49.93
2019-01-24T05:27:48.794Z,49.00
2019-01-24T05:30:24.085Z,48.80
2019-01-24T05:32:55.355Z,52.83
2019-01-24T05:35:25.838Z,48.33
2019-01-24T05:37:55.843Z,51.17
2019-01-24T05:40:25.302Z,50.10
2019-01-24T05:42:54.889Z,50.40
2019-01-24T05:45:24.331Z,51.07
2019-01-24T05:47:53.866Z,50.97
2019-01-24T05:50:24.566Z,52.17
2019-01-24T05:52:54.103Z,51.67
2019-01-24T05:55:23.570Z,55.70
2019-01-24T05:57:53.044Z,56.90
2019-01-24T06:00:26.929Z,57.47
2019-01-24T06:02:56.407Z,57.13
2019-01-24T06:05:27.503Z,57.60
2019-01-24T06:07:56.978Z,57.07
2019-01-24T06:10:26.551Z,59.67
2019-01-24T06:12:56.043Z,57.93
2019-01-24T06:15:25.856Z,56.37
2019-01-24T06:17:55.332Z,53.07
2019-01-24T06:20:25.113Z,47.33
2019-01-24T06:22:54.852Z,53.37
2019-01-24T06:25:24.602Z,52.73
2019-01-24T06:27:54.358Z,51.60
2019-01-24T06:30:24.178Z,51.73
2019-01-24T06:32:53.681Z,50.80
2019-01-24T06:35:23.145Z,53.73
2019-01-24T06:37:52.691Z,53.40
2019-01-24T06:40:22.152Z,48.67
2019-01-24T06:42:51.973Z,52.87
2019-01-24T06:45:22.888Z,51.00
2019-01-24T06:47:52.354Z,50.30
2019-01-24T06:50:21.989Z,53.77
2019-01-24T06:52:51.453Z,53.53
2019-01-24T06:55:26.658Z,51.07
2019-01-24T06:57:56.474Z,51.73
2019-01-24T07:00:26.291Z,51.90
2019-01-24T07:02:55.846Z,54.30
2019-01-24T07:05:25.310Z,56.97
2019-01-24T07:07:54.788Z,53.33
2019-01-24T07:10:24.823Z,67.33
2019-01-24T07:12:54.578Z,57.53
2019-01-24T07:15:24.209Z,49.70
2019-01-24T07:17:55.371Z,51.57
2019-01-24T07:20:24.834Z,54.53
2019-01-24T07:22:54.322Z,49.27
2019-01-24T07:25:25.930Z,52.57
2019-01-24T07:27:55.406Z,51.23
2019-01-24T07:30:24.885Z,54.57
2019-01-24T07:32:54.390Z,55.10
2019-01-24T07:35:23.859Z,50.10
2019-01-24T07:37:53.699Z,53.67
2019-01-24T07:40:23.179Z,52.03
2019-01-24T07:42:53.030Z,54.70
2019-01-24T07:45:28.038Z,54.27
2019-01-24T07:47:57.880Z,51.83
2019-01-24T07:50:27.383Z,53.37
2019-01-24T07:52:57.222Z,52.07
2019-01-24T07:55:26.802Z,52.13
2019-01-24T07:57:56.359Z,50.83
2019-01-24T08:00:28.135Z,52.37
2019-01-24T08:02:57.982Z,51.17
2019-01-24T08:05:29.298Z,49.37
2019-01-24T08:07:59.132Z,53.07
2019-01-24T08:10:28.736Z,49.47
2019-01-24T08:12:58.222Z,49.73
2019-01-24T08:15:29.201Z,49.70
2019-01-24T08:17:59.104Z,46.60
2019-01-24T08:20:29.021Z,49.33
2019-01-24T08:22:58.858Z,48.10
2019-01-24T08:25:29.256Z,46.53
2019-01-24T08:27:58.727Z,46.10
2019-01-24T08:30:30.658Z,48.93
2019-01-24T08:33:00.133Z,50.40
2019-01-24T08:35:29.694Z,44.23
2019-01-24T08:37:59.353Z,44.10
2019-01-24T08:40:28.898Z,46.90
2019-01-24T08:42:58.375Z,44.13
2019-01-24T08:45:27.857Z,38.10
2019-01-24T08:47:57.321Z,36.97
2019-01-24T08:50:27.433Z,34.23
2019-01-24T08:52:56.939Z,32.37
2019-01-24T08:55:31.207Z,33.33
2019-01-24T08:58:00.921Z,31.83
2019-01-24T09:00:31.160Z,30.73
2019-01-24T09:03:00.649Z,29.57
2019-01-24T09:05:30.119Z,31.13
2019-01-24T09:07:59.718Z,29.60
2019-01-24T09:10:32.459Z,28.40
2019-01-24T09:13:02.015Z,33.30
2019-01-24T09:15:32.456Z,28.27
2019-01-24T09:18:01.890Z,28.73
2019-01-24T09:20:31.357Z,27.37
2019-01-24T09:23:00.846Z,28.37
2019-01-24T09:25:30.359Z,29.07
2019-01-24T09:28:00.112Z,27.23
2019-01-24T09:30:30.457Z,27.90
2019-01-24T09:32:59.933Z,25.43
2019-01-24T09:35:29.394Z,26.93
2019-01-24T09:37:58.869Z,26.30
2019-01-24T09:40:28.353Z,26.27
2019-01-24T09:42:58.417Z,26.63
2019-01-24T09:45:29.230Z,25.97
2019-01-24T09:48:00.480Z,24.07
2019-01-24T09:50:30.282Z,26.67
2019-01-24T09:52:59.770Z,25.37
2019-01-24T09:55:29.227Z,24.57
2019-01-24T09:57:58.714Z,25.67
2019-01-24T10:00:32.969Z,24.53
2019-01-24T10:03:04.244Z,25.27
2019-01-24T10:05:33.989Z,25.70
2019-01-24T10:08:04.307Z,27.13
2019-01-24T10:10:33.769Z,26.80
2019-01-24T10:13:03.537Z,26.17
2019-01-24T10:15:32.995Z,26.83
2019-01-24T10:18:02.829Z,26.43
2019-01-24T10:20:32.650Z,26.07
2019-01-24T10:23:02.454Z,28.17
2019-01-24T10:25:34.464Z,26.47
2019-01-24T10:28:03.942Z,28.43
2019-01-24T10:30:33.884Z,27.07
2019-01-24T10:33:03.381Z,24.73
2019-01-24T10:35:32.889Z,28.00
2019-01-24T10:38:03.404Z,27.17
2019-01-24T10:40:33.376Z,27.80
2019-01-24T10:43:03.023Z,26.93
2019-01-24T10:45:32.823Z,27.70
2019-01-24T10:48:02.321Z,27.63
2019-01-24T10:50:31.783Z,26.80
2019-01-24T10:53:02.462Z,26.27
2019-01-24T10:55:32.276Z,27.10
2019-01-24T10:58:03.094Z,26.93
2019-01-24T11:00:34.982Z,27.67
2019-01-24T11:03:07.152Z,27.27
2019-01-24T11:05:36.618Z,27.80
2019-01-24T11:08:06.270Z,25.50
2019-01-24T11:10:35.723Z,26.43
2019-01-24T11:13:05.310Z,26.70
2019-01-24T11:15:35.575Z,26.83
2019-01-24T11:18:05.671Z,26.70
2019-01-24T11:20:35.146Z,25.63
2019-01-24T11:23:05.152Z,26.40
2019-01-24T11:25:34.628Z,28.87
2019-01-24T11:28:04.165Z,27.80
2019-01-24T11:30:34.096Z,28.03
2019-01-24T11:33:04.271Z,29.50
2019-01-24T11:35:36.297Z,29.27
2019-01-24T11:38:07.147Z,29.27
2019-01-24T11:40:36.858Z,29.57
2019-01-24T11:43:07.463Z,30.93
2019-01-24T11:45:39.288Z,29.40
2019-01-24T11:48:08.767Z,29.50
2019-01-24T11:50:38.532Z,29.37
2019-01-24T11:53:07.999Z,28.57
2019-01-24T11:55:37.724Z,30.57
2019-01-24T11:58:07.655Z,29.80
2019-01-24T12:00:43.129Z,29.27
2019-01-24T12:03:12.591Z,28.57
2019-01-24T12:05:42.060Z,30.70
2019-01-24T12:08:11.523Z,28.03
2019-01-24T12:10:40.994Z,30.23
2019-01-24T12:13:10.458Z,29.60
2019-01-24T12:15:39.942Z,29.30
2019-01-24T12:18:09.416Z,28.67
2019-01-24T12:20:38.901Z,28.43
2019-01-24T12:23:08.372Z,28.57
2019-01-24T12:25:37.845Z,27.43
2019-01-24T12:28:07.388Z,27.60
2019-01-24T12:30:37.384Z,26.27
2019-01-24T12:33:06.909Z,26.93
2019-01-24T12:35:36.444Z,27.77
2019-01-24T12:38:06.049Z,25.63
2019-01-24T12:40:35.574Z,26.60
2019-01-24T12:43:05.121Z,26.50
2019-01-24T12:45:36.033Z,25.00
2019-01-24T12:48:06.299Z,27.00
2019-01-24T12:50:35.793Z,26.47
2019-01-24T12:53:05.705Z,26.77
2019-01-24T12:55:35.263Z,23.87
2019-01-24T12:58:05.060Z,25.87
2019-01-24T13:00:36.506Z,25.33
2019-01-24T13:03:05.966Z,27.27
2019-01-24T13:05:35.454Z,27.20
2019-01-24T13:08:05.192Z,27.40
2019-01-24T13:10:34.658Z,27.50
2019-01-24T13:13:04.393Z,27.50
2019-01-24T13:15:34.012Z,26.67
2019-01-24T13:18:03.835Z,28.50
2019-01-24T13:20:33.636Z,30.27
2019-01-24T13:23:03.097Z,29.87
2019-01-24T13:25:33.517Z,28.67
2019-01-24T13:28:03.239Z,28.03
2019-01-24T13:30:35.829Z,28.23
2019-01-24T13:33:06.038Z,27.37
2019-01-24T13:35:35.518Z,28.33
2019-01-24T13:38:05.376Z,28.57
2019-01-24T13:40:34.865Z,29.17
2019-01-24T13:43:05.173Z,28.30
2019-01-24T13:45:36.086Z,28.67
2019-01-24T13:48:05.930Z,28.03
2019-01-24T13:50:35.686Z,28.43
2019-01-24T13:53:05.314Z,27.73
2019-01-24T13:55:34.850Z,29.33
2019-01-24T13:58:04.774Z,29.23
2019-01-24T14:00:35.824Z,29.00
2019-01-24T14:03:08.455Z,29.17
2019-01-24T14:05:37.937Z,28.53
2019-01-24T14:08:07.756Z,30.47
2019-01-24T14:10:37.490Z,28.93
2019-01-24T14:13:07.050Z,30.20
2019-01-24T14:15:36.550Z,29.17
2019-01-24T14:18:06.292Z,29.70
2019-01-24T14:20:35.742Z,29.13
2019-01-24T14:23:05.204Z,30.13
2019-01-24T14:25:35.023Z,29.67
2019-01-24T14:28:04.896Z,30.43
2019-01-24T14:30:34.847Z,28.23
2019-01-24T14:33:04.488Z,29.90
2019-01-24T14:35:34.725Z,27.93
2019-01-24T14:38:07.351Z,29.80
2019-01-24T14:40:36.896Z,28.30
2019-01-24T14:43:06.422Z,28.70
2019-01-24T14:45:35.909Z,28.73
2019-01-24T14:48:05.644Z,29.47
2019-01-24T14:50:35.204Z,28.97
2019-01-24T14:53:05.219Z,29.93
2019-01-24T14:55:34.732Z,28.27
2019-01-24T14:58:04.523Z,28.53
2019-01-24T15:00:42.944Z,29.77
2019-01-24T15:03:12.418Z,28.90
2019-01-24T15:05:41.898Z,28.60
2019-01-24T15:08:11.684Z,28.77
2019-01-24T15:10:41.186Z,28.80
2019-01-24T15:13:10.711Z,27.50
2019-01-24T15:15:40.187Z,28.37
2019-01-24T15:18:10.869Z,29.23
2019-01-24T15:20:40.409Z,30.53
2019-01-24T15:23:09.879Z,28.27
2019-01-24T15:25:39.363Z,30.53
2019-01-24T15:28:08.819Z,30.30
2019-01-24T15:30:38.479Z,31.23
2019-01-24T15:33:09.123Z,31.33
2019-01-24T15:35:38.602Z,29.17
2019-01-24T15:38:09.228Z,31.13
2019-01-24T15:40:38.784Z,30.60
2019-01-24T15:43:08.263Z,31.37
2019-01-24T15:45:37.767Z,28.43
2019-01-24T15:48:07.297Z,27.97
2019-01-24T15:50:36.802Z,30.57
2019-01-24T15:53:06.590Z,29.40
2019-01-24T15:55:36.066Z,28.70
2019-01-24T15:58:05.888Z,30.47
2019-01-24T16:00:35.727Z,29.17
2019-01-24T16:03:05.428Z,29.37
2019-01-24T16:05:34.894Z,30.80
2019-01-24T16:08:04.728Z,30.73
2019-01-24T16:10:34.208Z,29.00
2019-01-24T16:13:03.668Z,30.60
2019-01-24T16:15:35.325Z,31.80
2019-01-24T16:18:07.211Z,29.63
2019-01-24T16:20:36.773Z,29.93
2019-01-24T16:23:06.231Z,29.13
2019-01-24T16:25:56.640Z,29.83
2019-01-24T16:28:26.115Z,28.93
2019-01-24T16:30:56.711Z,27.63
2019-01-24T16:33:26.563Z,28.97
2019-01-24T16:35:56.029Z,28.60
2019-01-24T16:38:25.490Z,27.67
2019-01-24T16:40:54.976Z,29.13
2019-01-24T16:43:25.352Z,29.17
2019-01-24T16:45:54.813Z,30.13
2019-01-24T16:48:24.284Z,29.60
2019-01-24T16:50:53.774Z,30.30
2019-01-24T16:53:23.238Z,31.73
2019-01-24T16:55:52.885Z,30.80
2019-01-24T16:58:23.334Z,31.97
2019-01-24T17:00:53.290Z,28.60
2019-01-24T17:03:22.749Z,30.13
2019-01-24T17:05:52.317Z,30.73
2019-01-24T17:08:21.803Z,30.80
2019-01-24T17:10:51.563Z,29.80
2019-01-24T17:13:21.119Z,30.63
2019-01-24T17:15:50.609Z,30.03
2019-01-24T17:18:20.065Z,28.03
2019-01-24T17:20:49.517Z,30.43
2019-01-24T17:23:19.295Z,31.07
2019-01-24T17:25:48.808Z,31.07
2019-01-24T17:28:18.289Z,30.90
2019-01-24T17:30:47.949Z,30.03
2019-01-24T17:33:17.535Z,30.53
2019-01-24T17:35:47.001Z,30.57
2019-01-24T17:38:23.401Z,30.10
2019-01-24T17:40:47.704Z,30.57
2019-01-24T17:43:17.216Z,30.47
2019-01-24T17:45:46.747Z,31.67
2019-01-24T17:48:16.466Z,30.33
2019-01-24T17:50:46.019Z,30.37
2019-01-24T17:53:15.501Z,31.40
2019-01-24T17:55:45.926Z,28.50
2019-01-24T17:58:15.757Z,30.90
2019-01-24T18:00:46.932Z,31.63
2019-01-24T18:03:16.712Z,28.53
2019-01-24T18:05:46.549Z,30.10
2019-01-24T18:08:16.060Z,30.87
2019-01-24T18:10:45.571Z,30.03
2019-01-24T18:13:15.120Z,30.23
2019-01-24T18:15:44.860Z,29.17
2019-01-24T18:18:14.416Z,32.43
2019-01-24T18:20:43.954Z,31.97
2019-01-24T18:23:13.522Z,33.60
2019-01-24T18:25:43.261Z,31.10
2019-01-24T18:28:12.714Z,31.03
2019-01-24T18:30:42.547Z,32.13
2019-01-24T18:33:12.386Z,30.13
2019-01-24T18:35:42.135Z,29.97
2019-01-24T18:38:11.732Z,30.17
2019-01-24T18:40:41.572Z,32.40
2019-01-24T18:43:14.545Z,32.47
2019-01-24T18:45:52.833Z,32.07
2019-01-24T18:48:22.467Z,31.07
2019-01-24T18:50:51.955Z,33.97
2019-01-24T18:53:21.435Z,31.57
2019-01-24T18:55:51.208Z,32.20
2019-01-24T18:58:20.689Z,31.73
2019-01-24T19:00:50.428Z,30.57
2019-01-24T19:03:19.921Z,32.47
2019-01-24T19:05:49.402Z,31.20
2019-01-24T19:08:20.552Z,30.33
2019-01-24T19:10:50.033Z,29.30
2019-01-24T19:13:19.788Z,33.87
2019-01-24T19:15:49.327Z,31.30
2019-01-24T19:18:19.096Z,33.10
2019-01-24T19:20:48.643Z,31.87
2019-01-24T19:23:18.124Z,31.07
2019-01-24T19:25:47.598Z,31.10
2019-01-24T19:28:17.074Z,32.17
2019-01-24T19:30:46.696Z,29.97
2019-01-24T19:33:16.362Z,32.47
2019-01-24T19:35:45.818Z,33.07
2019-01-24T19:38:15.658Z,31.97
2019-01-24T19:40:45.471Z,31.77
2019-01-24T19:43:14.942Z,32.80
2019-01-24T19:45:44.428Z,32.80
2019-01-24T19:48:13.999Z,31.87
2019-01-24T19:50:43.455Z,30.77
2019-01-24T19:53:14.036Z,34.17
2019-01-24T19:55:43.513Z,32.13
2019-01-24T19:58:12.980Z,32.47
2019-01-24T20:00:42.448Z,33.10
2019-01-24T20:03:12.197Z,33.30
2019-01-24T20:05:41.968Z,32.50
2019-01-24T20:08:11.780Z,33.00
2019-01-24T20:10:41.304Z,32.83
2019-01-24T20:13:11.058Z,32.00
2019-01-24T20:15:40.521Z,32.87
2019-01-24T20:18:10.066Z,32.43
2019-01-24T20:20:39.529Z,31.93
2019-01-24T20:23:09.007Z,32.07
2019-01-24T20:25:38.621Z,32.87
2019-01-24T20:28:08.457Z,32.63
2019-01-24T20:30:38.286Z,34.03
2019-01-24T20:33:07.790Z,32.03
2019-01-24T20:35:45.528Z,36.07
2019-01-24T20:38:14.990Z,35.07
2019-01-24T20:40:44.451Z,33.43
2019-01-24T20:43:15.943Z,35.83
2019-01-24T20:45:45.414Z,34.97
2019-01-24T20:48:14.873Z,33.57
2019-01-24T20:50:44.332Z,36.50
2019-01-24T20:53:14.202Z,35.20
2019-01-24T20:55:44.001Z,35.87
2019-01-24T20:58:13.778Z,36.43
2019-01-24T21:00:43.407Z,37.43
2019-01-24T21:03:12.880Z,34.57
2019-01-24T21:05:42.407Z,35.17
2019-01-24T21:08:11.903Z,35.93
2019-01-24T21:10:41.354Z,35.63
2019-01-24T21:13:10.829Z,36.13
2019-01-24T21:15:40.308Z,35.37
2019-01-24T21:18:09.788Z,32.77
2019-01-24T21:20:39.242Z,33.93
2019-01-24T21:23:08.812Z,39.77
2019-01-24T21:25:38.276Z,37.83
2019-01-24T21:28:07.753Z,40.70
2019-01-24T21:30:38.291Z,35.83
2019-01-24T21:33:08.617Z,35.13
2019-01-24T21:35:38.078Z,33.73
2019-01-24T21:38:07.775Z,32.57
2019-01-24T21:40:37.262Z,34.97
2019-01-24T21:43:06.741Z,33.53
2019-01-24T21:45:37.527Z,34.20
2019-01-24T21:48:07.851Z,34.23
2019-01-24T21:50:37.634Z,33.30
2019-01-24T21:53:07.250Z,35.07
2019-01-24T21:55:36.774Z,35.83
2019-01-24T21:58:06.800Z,34.03
2019-01-24T22:00:36.543Z,35.47
2019-01-24T22:03:06.295Z,32.83
2019-01-24T22:05:35.928Z,32.90
2019-01-24T22:08:07.267Z,33.40
2019-01-24T22:10:36.736Z,33.27
2019-01-24T22:13:06.442Z,34.40
2019-01-24T22:15:35.918Z,35.53
2019-01-24T22:18:08.963Z,34.23
2019-01-24T22:20:38.440Z,33.90
2019-01-24T22:23:07.947Z,36.33
2019-01-24T22:25:37.409Z,35.63
2019-01-24T22:28:06.948Z,35.20
2019-01-24T22:30:46.008Z,33.73
2019-01-24T22:33:16.060Z,35.03
2019-01-24T22:35:45.531Z,36.50
2019-01-24T22:38:15.270Z,35.30
2019-01-24T22:40:44.758Z,33.43
2019-01-24T22:43:14.533Z,34.30
2019-01-24T22:45:44.004Z,32.93
2019-01-24T22:48:13.471Z,33.73
2019-01-24T22:50:42.974Z,35.30
2019-01-24T22:53:12.432Z,34.77
2019-01-24T22:55:41.952Z,34.70
2019-01-24T22:58:11.417Z,33.50
2019-01-24T23:00:51.536Z,36.20
2019-01-24T23:03:36.698Z,36.03
2019-01-24T23:06:06.226Z,34.87
2019-01-24T23:08:35.695Z,34.83
2019-01-24T23:11:06.336Z,34.10
2019-01-24T23:13:36.159Z,33.83
2019-01-24T23:16:05.894Z,34.17
2019-01-24T23:18:35.423Z,34.20
2019-01-24T23:21:05.792Z,36.00
2019-01-24T23:23:35.507Z,33.93
2019-01-24T23:26:05.245Z,35.17
2019-01-24T23:28:34.722Z,32.70
2019-01-24T23:31:04.457Z,34.83
2019-01-24T23:33:33.959Z,33.80
2019-01-24T23:36:03.524Z,36.50
2019-01-24T23:38:32.988Z,34.27
2019-01-24T23:41:02.476Z,35.13
2019-01-24T23:43:31.992Z,36.63
2019-01-24T23:46:01.689Z,35.43
2019-01-24T23:48:31.208Z,37.70
2019-01-24T23:51:00.714Z,36.00
2019-01-24T23:53:30.234Z,36.43
2019-01-24T23:56:00.016Z,36.80
2019-01-24T23:58:29.484Z,36.30
